createdAt,value
2023-03-13T00:01:30.774Z,5.68
2023-03-13T00:03:57.942Z,5.50
2023-03-13T00:06:35.044Z,5.70
2023-03-13T00:09:05.377Z,5.80
2023-03-13T00:11:33.179Z,6.03
2023-03-13T00:14:03.449Z,5.78
2023-03-13T00:16:31.517Z,5.57
2023-03-13T00:18:59.333Z,5.60
2023-03-13T00:21:29.502Z,6.13
2023-03-13T00:23:59.148Z,5.68
2023-03-13T00:26:27.989Z,5.00
2023-03-13T00:28:55.217Z,5.53
2023-03-13T00:31:31.543Z,6.05
2023-03-13T00:34:03.550Z,5.82
2023-03-13T00:36:34.064Z,4.35
2023-03-13T00:39:06.468Z,5.60
2023-03-13T00:41:34.361Z,5.38
2023-03-13T00:44:01.519Z,4.60
2023-03-13T00:46:30.978Z,4.80
2023-03-13T00:48:58.796Z,5.38
2023-03-13T00:51:27.771Z,4.25
2023-03-13T00:53:57.542Z,4.32
2023-03-13T00:56:24.673Z,4.30
2023-03-13T00:58:51.920Z,4.50
2023-03-13T01:01:24.718Z,3.80
2023-03-13T01:03:56.825Z,3.92
2023-03-13T01:06:28.166Z,3.78
2023-03-13T01:08:55.844Z,3.90
2023-03-13T01:11:30.257Z,3.97
2023-03-13T01:14:03.075Z,3.78
2023-03-13T01:16:33.876Z,3.70
2023-03-13T01:19:05.673Z,5.07
2023-03-13T01:21:33.097Z,3.92
2023-03-13T01:24:00.361Z,3.95
2023-03-13T01:26:28.654Z,4.30
2023-03-13T01:28:56.683Z,3.97
2023-03-13T01:31:34.193Z,4.03
2023-03-13T01:34:05.081Z,3.50
2023-03-13T01:36:33.465Z,3.90
2023-03-13T01:39:01.188Z,4.20
2023-03-13T01:41:30.279Z,3.28
2023-03-13T01:43:59.054Z,3.72
2023-03-13T01:46:28.897Z,3.50
2023-03-13T01:49:12.881Z,3.70
2023-03-13T01:51:55.673Z,3.10
2023-03-13T01:54:35.346Z,3.53
2023-03-13T01:57:25.001Z,3.47
2023-03-13T02:00:08.109Z,3.78
2023-03-13T02:02:37.160Z,3.72
2023-03-13T02:05:07.010Z,3.95
2023-03-13T02:07:45.726Z,3.38
2023-03-13T02:10:15.462Z,3.95
2023-03-13T02:12:42.728Z,3.40
2023-03-13T02:15:16.312Z,3.70
2023-03-13T02:17:45.840Z,3.55
2023-03-13T02:20:16.202Z,3.63
2023-03-13T02:22:45.942Z,3.80
2023-03-13T02:25:25.328Z,2.92
2023-03-13T02:28:04.846Z,4.00
2023-03-13T02:30:32.916Z,3.10
2023-03-13T02:33:01.651Z,3.20
2023-03-13T02:35:31.457Z,3.47
2023-03-13T02:38:04.286Z,3.22
2023-03-13T02:40:40.024Z,3.47
2023-03-13T02:43:37.893Z,2.55
2023-03-13T02:46:15.443Z,2.92
2023-03-13T02:48:47.490Z,3.28
2023-03-13T02:51:38.242Z,2.83
2023-03-13T02:54:12.128Z,3.35
2023-03-13T02:56:43.353Z,3.10
2023-03-13T02:59:10.831Z,2.72
2023-03-13T03:01:37.969Z,3.55
2023-03-13T03:04:05.260Z,3.50
2023-03-13T03:06:32.924Z,3.60
2023-03-13T03:09:00.051Z,3.42
2023-03-13T03:11:27.148Z,3.15
2023-03-13T03:13:54.633Z,2.97
2023-03-13T03:16:21.780Z,2.78
2023-03-13T03:18:49.008Z,2.67
2023-03-13T03:21:16.148Z,2.75
2023-03-13T03:23:43.284Z,2.67
2023-03-13T03:26:10.595Z,2.28
2023-03-13T03:28:37.657Z,2.25
2023-03-13T03:31:10.867Z,2.75
2023-03-13T03:33:38.889Z,2.33
2023-03-13T03:36:10.670Z,2.38
2023-03-13T03:38:39.796Z,2.65
2023-03-13T03:41:12.225Z,2.03
2023-03-13T03:43:39.596Z,2.30
2023-03-13T03:46:07.714Z,2.75
2023-03-13T03:48:35.553Z,2.53
2023-03-13T03:51:02.654Z,2.35
2023-03-13T03:53:29.855Z,1.92
2023-03-13T03:55:57.276Z,2.63
2023-03-13T03:58:24.622Z,2.53
2023-03-13T04:00:51.913Z,2.53
2023-03-13T04:03:19.089Z,2.63
2023-03-13T04:05:46.220Z,2.30
2023-03-13T04:08:13.574Z,2.60
2023-03-13T04:10:40.738Z,2.30
2023-03-13T04:13:08.184Z,2.47
2023-03-13T04:15:35.405Z,2.63
2023-03-13T04:18:02.464Z,2.90
2023-03-13T04:20:29.608Z,2.80
2023-03-13T04:22:56.781Z,2.95
2023-03-13T04:25:23.958Z,2.38
2023-03-13T04:27:51.470Z,3.03
2023-03-13T04:30:18.826Z,2.55
2023-03-13T04:32:46.460Z,2.58
2023-03-13T04:35:13.782Z,2.50
2023-03-13T04:37:40.955Z,2.75
2023-03-13T04:40:09.198Z,2.53
2023-03-13T04:42:36.285Z,3.03
2023-03-13T04:45:03.707Z,2.63
2023-03-13T04:47:30.843Z,2.80
2023-03-13T04:49:57.969Z,3.00
2023-03-13T04:52:25.070Z,2.92
2023-03-13T04:54:52.210Z,2.80
2023-03-13T04:57:19.310Z,2.53
2023-03-13T04:59:46.508Z,2.15
2023-03-13T05:02:14.019Z,2.50
2023-03-13T05:04:41.226Z,2.30
2023-03-13T05:07:08.348Z,2.70
2023-03-13T05:09:35.446Z,2.45
2023-03-13T05:12:02.625Z,1.98
2023-03-13T05:14:29.728Z,2.80
2023-03-13T05:16:56.813Z,2.92
2023-03-13T05:19:23.889Z,2.70
2023-03-13T05:21:51.023Z,2.63
2023-03-13T05:24:18.244Z,3.05
2023-03-13T05:26:45.338Z,2.13
2023-03-13T05:29:12.516Z,2.80
2023-03-13T05:31:39.632Z,2.78
2023-03-13T05:34:06.787Z,2.33
2023-03-13T05:36:33.892Z,2.10
2023-03-13T05:39:01.116Z,2.53
2023-03-13T05:41:28.276Z,2.80
2023-03-13T05:43:55.412Z,2.55
2023-03-13T05:46:22.523Z,2.38
2023-03-13T05:48:49.696Z,2.42
2023-03-13T05:51:16.801Z,2.22
2023-03-13T05:53:43.957Z,2.83
2023-03-13T05:56:11.093Z,2.35
2023-03-13T05:58:38.174Z,2.10
2023-03-13T06:01:11.083Z,2.33
2023-03-13T06:03:38.293Z,2.92
2023-03-13T06:06:05.870Z,2.58
2023-03-13T06:08:33.012Z,2.85
2023-03-13T06:11:01.939Z,2.60
2023-03-13T06:13:29.581Z,2.72
2023-03-13T06:15:58.482Z,2.70
2023-03-13T06:18:27.042Z,2.55
2023-03-13T06:21:00.291Z,2.42
2023-03-13T06:23:27.938Z,2.75
2023-03-13T06:25:55.561Z,2.70
2023-03-13T06:28:22.808Z,2.75
2023-03-13T06:30:50.018Z,2.50
2023-03-13T06:33:17.425Z,2.17
2023-03-13T06:35:55.757Z,2.90
2023-03-13T06:38:25.188Z,2.28
2023-03-13T06:40:52.527Z,2.65
2023-03-13T06:43:20.267Z,2.83
2023-03-13T06:45:48.015Z,3.58
2023-03-13T06:48:15.192Z,3.25
2023-03-13T06:50:42.808Z,2.97
2023-03-13T06:53:19.376Z,2.80
2023-03-13T06:55:47.083Z,2.47
2023-03-13T06:58:29.112Z,2.55
2023-03-13T07:00:59.520Z,1.75
2023-03-13T07:03:26.744Z,2.30
2023-03-13T07:05:58.692Z,2.00
2023-03-13T07:08:26.361Z,2.70
2023-03-13T07:10:58.296Z,2.95
2023-03-13T07:13:34.578Z,2.47
2023-03-13T07:16:08.213Z,2.25
2023-03-13T07:18:36.249Z,2.10
2023-03-13T07:21:05.438Z,2.20
2023-03-13T07:23:35.298Z,2.38
2023-03-13T07:26:15.089Z,2.10
2023-03-13T07:28:43.469Z,1.85
2023-03-13T07:31:17.418Z,2.75
2023-03-13T07:33:45.524Z,2.30
2023-03-13T07:36:15.266Z,1.90
2023-03-13T07:38:43.953Z,2.00
2023-03-13T07:41:13.535Z,3.30
2023-03-13T07:43:40.963Z,2.75
2023-03-13T07:46:15.103Z,3.67
2023-03-13T07:48:43.300Z,4.25
2023-03-13T07:51:33.514Z,3.85
2023-03-13T07:54:07.899Z,4.97
2023-03-13T07:56:35.003Z,5.28
2023-03-13T07:59:02.111Z,4.47
2023-03-13T08:01:30.936Z,4.35
2023-03-13T08:04:01.379Z,3.20
2023-03-13T08:06:33.941Z,4.10
2023-03-13T08:09:01.886Z,3.83
2023-03-13T08:11:29.875Z,4.10
2023-03-13T08:13:58.457Z,3.53
2023-03-13T08:16:34.277Z,4.05
2023-03-13T08:19:05.091Z,3.55
2023-03-13T08:21:36.263Z,3.65
2023-03-13T08:24:08.012Z,3.78
2023-03-13T08:26:38.207Z,4.35
2023-03-13T08:29:13.310Z,4.22
2023-03-13T08:31:44.868Z,4.47
2023-03-13T08:34:13.140Z,3.85
2023-03-13T08:36:40.954Z,3.78
2023-03-13T08:39:14.400Z,3.67
2023-03-13T08:41:41.923Z,3.95
2023-03-13T08:44:13.057Z,3.10
2023-03-13T08:46:42.251Z,3.83
2023-03-13T08:49:09.797Z,3.38
2023-03-13T08:51:37.868Z,3.90
2023-03-13T08:54:05.729Z,4.03
2023-03-13T08:56:34.835Z,3.47
2023-03-13T08:59:04.410Z,3.95
2023-03-13T09:01:36.529Z,3.78
2023-03-13T09:04:05.406Z,3.50
2023-03-13T09:06:38.561Z,3.35
2023-03-13T09:09:07.569Z,3.85
2023-03-13T09:11:36.655Z,3.60
2023-03-13T09:14:04.015Z,3.60
2023-03-13T09:16:34.247Z,3.80
2023-03-13T09:19:01.709Z,3.83
2023-03-13T09:21:35.645Z,3.97
2023-03-13T09:24:03.129Z,4.82
2023-03-13T09:26:30.975Z,3.90
2023-03-13T09:28:58.704Z,4.70
2023-03-13T09:31:33.898Z,4.95
2023-03-13T09:34:01.968Z,4.97
2023-03-13T09:36:29.253Z,4.60
2023-03-13T09:38:59.213Z,5.03
2023-03-13T09:41:42.943Z,4.55
2023-03-13T09:44:12.765Z,4.60
2023-03-13T09:47:15.275Z,4.20
2023-03-13T09:50:11.746Z,4.53
2023-03-13T09:52:41.131Z,5.22
2023-03-13T09:55:21.602Z,4.85
2023-03-13T09:58:02.367Z,5.20
2023-03-13T10:00:43.598Z,5.00
2023-03-13T10:03:38.920Z,5.30
2023-03-13T10:06:20.603Z,5.07
2023-03-13T10:08:47.667Z,5.10
2023-03-13T10:11:40.147Z,5.13
2023-03-13T10:14:31.447Z,4.57
2023-03-13T10:17:37.965Z,5.20
2023-03-13T10:20:11.021Z,4.45
2023-03-13T10:22:39.968Z,4.60
2023-03-13T10:25:36.231Z,4.90
2023-03-13T10:28:03.488Z,5.38
2023-03-13T10:30:35.868Z,4.90
2023-03-13T10:33:08.433Z,4.30
2023-03-13T10:35:40.346Z,5.07
2023-03-13T10:38:19.784Z,4.03
2023-03-13T10:40:59.560Z,4.82
2023-03-13T10:43:29.357Z,4.15
2023-03-13T10:45:56.669Z,4.45
2023-03-13T10:48:30.218Z,4.70
2023-03-13T10:50:57.905Z,4.65
2023-03-13T10:53:30.916Z,5.03
2023-03-13T10:56:15.346Z,4.30
2023-03-13T10:58:49.465Z,3.63
2023-03-13T11:01:33.821Z,4.22
2023-03-13T11:04:30.927Z,3.67
2023-03-13T11:07:16.973Z,4.18
2023-03-13T11:09:57.251Z,2.97
2023-03-13T11:12:24.386Z,3.42
2023-03-13T11:14:58.814Z,3.40
2023-03-13T11:17:40.282Z,3.03
2023-03-13T11:20:23.315Z,3.00
2023-03-13T11:23:26.683Z,3.40
2023-03-13T11:26:39.350Z,3.30
2023-03-13T11:29:34.249Z,3.25
2023-03-13T11:32:13.884Z,3.05
2023-03-13T11:34:47.883Z,3.42
2023-03-13T11:37:18.562Z,3.60
2023-03-13T11:40:12.325Z,2.92
2023-03-13T11:42:57.291Z,2.65
2023-03-13T11:45:51.897Z,2.92
2023-03-13T11:48:50.660Z,2.97
2023-03-13T11:51:26.515Z,2.58
2023-03-13T11:57:05.549Z,3.10
2023-03-13T11:59:46.155Z,2.60
2023-03-13T12:02:49.842Z,2.65
2023-03-13T12:05:20.928Z,3.05
2023-03-13T12:08:04.948Z,2.95
2023-03-13T12:10:44.117Z,3.25
2023-03-13T12:13:22.401Z,2.75
2023-03-13T12:16:01.089Z,2.70
2023-03-13T12:18:38.502Z,2.38
2023-03-13T12:21:31.123Z,2.60
2023-03-13T12:24:18.835Z,2.53
2023-03-13T12:27:11.468Z,2.47
2023-03-13T12:29:55.515Z,2.42
2023-03-13T12:32:57.581Z,2.88
2023-03-13T12:35:29.384Z,2.63
2023-03-13T12:38:19.216Z,2.80
2023-03-13T12:41:03.121Z,3.10
2023-03-13T12:43:34.817Z,2.70
2023-03-13T12:46:01.952Z,2.53
2023-03-13T12:48:38.008Z,2.55
2023-03-13T12:51:36.820Z,2.78
2023-03-13T12:54:13.188Z,2.30
2023-03-13T12:57:11.041Z,2.25
2023-03-13T12:59:49.395Z,2.35
2023-03-13T13:02:24.599Z,2.15
2023-03-13T13:04:54.906Z,2.13
2023-03-13T13:07:29.215Z,2.20
2023-03-13T13:10:21.790Z,2.40
2023-03-13T13:13:14.925Z,2.67
2023-03-13T13:15:59.985Z,2.65
2023-03-13T13:18:31.024Z,2.78
2023-03-13T13:21:06.967Z,2.75
2023-03-13T13:23:43.756Z,3.00
2023-03-13T13:26:33.809Z,2.65
2023-03-13T13:29:22.400Z,2.50
2023-03-13T13:31:52.223Z,2.50
2023-03-13T13:34:28.568Z,2.50
2023-03-13T13:37:19.999Z,2.60
2023-03-13T13:39:52.863Z,3.08
2023-03-13T13:42:41.989Z,3.38
2023-03-13T13:45:15.054Z,2.20
2023-03-13T13:47:46.782Z,2.17
2023-03-13T13:50:26.129Z,2.25
2023-03-13T13:53:32.148Z,2.05
2023-03-13T13:56:00.187Z,2.30
2023-03-13T13:58:32.575Z,3.50
2023-03-13T14:01:11.400Z,2.28
2023-03-13T14:03:43.649Z,2.60
2023-03-13T14:06:20.297Z,2.30
2023-03-13T14:08:53.060Z,2.00
2023-03-13T14:11:25.795Z,2.42
2023-03-13T14:14:21.716Z,2.75
2023-03-13T14:16:57.302Z,2.38
2023-03-13T14:19:30.638Z,2.88
2023-03-13T14:22:03.656Z,2.28
2023-03-13T14:24:30.951Z,2.20
2023-03-13T14:26:58.138Z,2.05
2023-03-13T14:29:26.511Z,2.00
2023-03-13T14:31:59.195Z,2.30
2023-03-13T14:34:31.510Z,1.95
2023-03-13T14:37:17.242Z,2.40
2023-03-13T14:39:48.724Z,2.20
2023-03-13T14:42:18.536Z,2.50
2023-03-13T14:44:50.278Z,2.40
2023-03-13T14:47:31.092Z,2.33
2023-03-13T14:50:10.367Z,2.58
2023-03-13T14:52:39.944Z,2.75
2023-03-13T14:55:31.252Z,2.60
2023-03-13T14:58:07.101Z,2.22
2023-03-13T15:00:44.723Z,2.53
2023-03-13T15:03:18.877Z,2.50
2023-03-13T15:06:02.944Z,2.53
2023-03-13T15:08:30.549Z,1.75
2023-03-13T15:10:58.207Z,2.30
2023-03-13T15:13:37.823Z,2.33
2023-03-13T15:16:18.736Z,2.08
2023-03-13T15:18:47.505Z,2.47
2023-03-13T15:21:14.471Z,2.30
2023-03-13T15:23:50.117Z,2.28
2023-03-13T15:28:44.956Z,2.50
2023-03-13T15:31:14.549Z,2.38
2023-03-13T15:33:43.589Z,2.13
2023-03-13T15:36:12.147Z,2.05
2023-03-13T15:38:41.036Z,2.45
2023-03-13T15:41:09.363Z,2.28
2023-03-13T15:43:37.114Z,2.60
2023-03-13T15:46:05.861Z,2.00
2023-03-13T15:48:33.123Z,2.10
2023-03-13T15:51:04.097Z,2.08
2023-03-13T15:53:35.487Z,2.20
2023-03-13T15:56:11.807Z,2.13
2023-03-13T15:58:39.077Z,2.63
2023-03-13T16:01:06.690Z,2.58
2023-03-13T16:03:33.808Z,2.50
2023-03-13T16:06:00.915Z,2.60
2023-03-13T16:08:37.471Z,1.90
2023-03-13T16:11:05.239Z,2.30
2023-03-13T16:13:32.653Z,2.47
2023-03-13T16:15:59.874Z,2.22
2023-03-13T16:18:26.981Z,2.38
2023-03-13T16:20:54.276Z,2.33
2023-03-13T16:23:21.649Z,2.30
2023-03-13T16:25:49.424Z,2.42
2023-03-13T16:28:16.879Z,2.38
2023-03-13T16:30:45.436Z,2.22
2023-03-13T16:33:12.743Z,1.98
2023-03-13T16:35:40.691Z,2.60
2023-03-13T16:38:11.578Z,2.13
2023-03-13T16:40:38.926Z,2.50
2023-03-13T16:43:06.022Z,2.30
2023-03-13T16:45:33.472Z,2.00
2023-03-13T16:48:01.019Z,2.30
2023-03-13T16:50:37.265Z,2.28
2023-03-13T16:53:04.972Z,2.40
2023-03-13T16:55:36.803Z,2.10
2023-03-13T16:58:05.231Z,1.80
2023-03-13T17:00:33.868Z,2.50
2023-03-13T17:03:01.711Z,2.00
2023-03-13T17:05:29.535Z,2.50
2023-03-13T17:07:57.139Z,2.20
2023-03-13T17:10:30.554Z,2.45
2023-03-13T17:12:58.531Z,2.47
2023-03-13T17:15:27.066Z,2.30
2023-03-13T17:17:54.974Z,2.42
2023-03-13T17:20:26.619Z,2.60
2023-03-13T17:22:56.331Z,2.67
2023-03-13T17:25:24.711Z,2.45
2023-03-13T17:27:52.484Z,2.22
2023-03-13T17:30:28.333Z,2.80
2023-03-13T17:32:57.040Z,2.10
2023-03-13T17:35:24.901Z,2.70
2023-03-13T17:37:53.248Z,2.17
2023-03-13T17:40:28.264Z,2.42
2023-03-13T17:42:56.403Z,2.20
2023-03-13T17:45:25.388Z,2.63
2023-03-13T17:47:54.787Z,3.20
2023-03-13T17:50:27.625Z,2.30
2023-03-13T17:52:56.190Z,2.65
2023-03-13T17:55:24.573Z,2.85
2023-03-13T17:57:53.328Z,2.85
2023-03-13T18:00:26.313Z,2.85
2023-03-13T18:02:54.308Z,2.80
2023-03-13T18:05:22.642Z,2.88
2023-03-13T18:07:50.848Z,3.00
2023-03-13T18:10:28.308Z,2.83
2023-03-13T18:12:59.182Z,3.22
2023-03-13T18:15:27.617Z,2.70
2023-03-13T18:17:55.067Z,2.45
2023-03-13T18:20:30.264Z,2.97
2023-03-13T18:23:05.593Z,2.58
2023-03-13T18:25:33.100Z,2.83
2023-03-13T18:28:01.277Z,3.47
2023-03-13T18:30:29.448Z,3.15
2023-03-13T18:32:57.360Z,2.35
2023-03-13T18:35:27.728Z,3.10
2023-03-13T18:37:56.094Z,2.63
2023-03-13T18:40:27.941Z,2.63
2023-03-13T18:42:57.150Z,2.58
2023-03-13T18:45:28.424Z,2.80
2023-03-13T18:47:57.791Z,3.33
2023-03-13T18:50:32.734Z,3.03
2023-03-13T18:53:02.857Z,3.00
2023-03-13T18:55:32.618Z,2.95
2023-03-13T18:58:00.950Z,2.95
2023-03-13T19:00:32.106Z,2.58
2023-03-13T19:03:00.380Z,2.95
2023-03-13T19:05:28.744Z,2.63
2023-03-13T19:07:57.332Z,3.30
2023-03-13T19:10:29.664Z,2.88
2023-03-13T19:12:58.767Z,2.55
2023-03-13T19:15:33.703Z,3.22
2023-03-13T19:18:03.759Z,2.92
2023-03-13T19:20:34.017Z,2.65
2023-03-13T19:23:02.781Z,2.88
2023-03-13T19:25:34.624Z,3.20
2023-03-13T19:28:03.293Z,3.10
2023-03-13T19:30:31.265Z,2.80
2023-03-13T19:32:59.483Z,2.85
2023-03-13T19:35:31.013Z,3.13
2023-03-13T19:38:04.486Z,2.45
2023-03-13T19:40:33.195Z,3.08
2023-03-13T19:43:01.760Z,3.83
2023-03-13T19:45:31.281Z,3.00
2023-03-13T19:48:01.443Z,2.90
2023-03-13T19:50:31.718Z,2.78
2023-03-13T19:53:00.310Z,3.33
2023-03-13T19:55:30.168Z,2.85
2023-03-13T19:58:01.501Z,3.40
2023-03-13T20:00:30.191Z,3.10
2023-03-13T20:03:01.928Z,3.10
2023-03-13T20:05:30.664Z,3.13
2023-03-13T20:08:00.988Z,3.35
2023-03-13T20:10:29.480Z,3.30
2023-03-13T20:13:01.156Z,2.83
2023-03-13T20:15:30.172Z,3.53
2023-03-13T20:17:58.839Z,3.50
2023-03-13T20:20:27.900Z,3.55
2023-03-13T20:22:56.804Z,4.65
2023-03-13T20:25:25.300Z,3.50
2023-03-13T20:27:55.500Z,3.70
2023-03-13T20:30:23.727Z,3.30
2023-03-13T20:32:59.565Z,3.40
2023-03-13T20:35:28.995Z,3.83
2023-03-13T20:37:59.051Z,3.35
2023-03-13T20:40:27.580Z,4.20
2023-03-13T20:42:56.263Z,4.20
2023-03-13T20:45:25.297Z,4.18
2023-03-13T20:47:54.960Z,3.83
2023-03-13T20:50:26.021Z,4.75
2023-03-13T20:52:56.026Z,4.43
2023-03-13T20:55:24.579Z,4.95
2023-03-13T20:57:52.828Z,4.38
2023-03-13T21:00:21.295Z,4.30
2023-03-13T21:02:49.468Z,3.85
2023-03-13T21:05:18.585Z,4.13
2023-03-13T21:07:48.018Z,3.83
2023-03-13T21:10:16.110Z,3.65
2023-03-13T21:12:46.090Z,4.00
2023-03-13T21:15:14.512Z,4.75
2023-03-13T21:17:42.103Z,4.65
2023-03-13T21:20:14.401Z,4.85
2023-03-13T21:22:44.224Z,4.47
2023-03-13T21:25:12.569Z,4.45
2023-03-13T21:27:39.883Z,4.95
2023-03-13T21:30:10.795Z,4.80
2023-03-13T21:32:39.704Z,4.35
2023-03-13T21:35:09.308Z,4.43
2023-03-13T21:37:37.196Z,4.78
2023-03-13T21:40:06.522Z,5.57
2023-03-13T21:42:37.690Z,5.10
2023-03-13T21:45:06.913Z,4.50
2023-03-13T21:47:37.627Z,4.75
2023-03-13T21:50:10.020Z,5.32
2023-03-13T21:52:40.826Z,5.03
2023-03-13T21:55:12.798Z,5.03
2023-03-13T21:57:41.067Z,4.45
2023-03-13T22:00:09.577Z,4.70
2023-03-13T22:02:37.561Z,4.40
2023-03-13T22:05:07.962Z,5.03
2023-03-13T22:07:36.243Z,4.90
2023-03-13T22:10:03.674Z,5.55
2023-03-13T22:12:30.793Z,4.93
2023-03-13T22:14:58.012Z,5.45
2023-03-13T22:17:25.224Z,4.15
2023-03-13T22:19:52.430Z,4.70
2023-03-13T22:22:21.900Z,5.47
2023-03-13T22:24:49.451Z,4.93
2023-03-13T22:27:17.654Z,4.28
2023-03-13T22:29:44.961Z,4.15
2023-03-13T22:32:12.163Z,3.72
2023-03-13T22:34:44.883Z,4.10
2023-03-13T22:37:12.259Z,4.18
2023-03-13T22:39:39.641Z,4.53
2023-03-13T22:42:07.838Z,4.05
2023-03-13T22:44:35.468Z,4.13
2023-03-13T22:47:02.761Z,3.65
2023-03-13T22:49:30.019Z,3.95
2023-03-13T22:51:59.036Z,4.43
2023-03-13T22:54:26.253Z,4.18
2023-03-13T22:56:53.519Z,3.70
2023-03-13T22:59:20.751Z,4.05
2023-03-13T23:01:48.502Z,4.38
2023-03-13T23:04:15.700Z,3.75
2023-03-13T23:06:42.908Z,4.32
2023-03-13T23:09:10.612Z,4.18
2023-03-13T23:11:38.227Z,3.90
2023-03-13T23:14:05.711Z,4.00
2023-03-13T23:16:33.023Z,3.53
2023-03-13T23:19:01.315Z,3.55
2023-03-13T23:21:28.522Z,3.42
2023-03-13T23:23:55.675Z,4.05
2023-03-13T23:26:23.052Z,3.05
2023-03-13T23:28:50.127Z,3.40
2023-03-13T23:31:20.935Z,3.80
2023-03-13T23:33:49.115Z,3.15
2023-03-13T23:36:19.172Z,5.65
2023-03-13T23:38:50.375Z,4.32
2023-03-13T23:41:17.877Z,3.85
2023-03-13T23:43:45.012Z,3.92
2023-03-13T23:46:24.001Z,3.50
2023-03-13T23:48:58.777Z,4.13
2023-03-13T23:51:26.379Z,3.67
2023-03-13T23:53:53.630Z,3.38
2023-03-13T23:56:20.913Z,3.42
2023-03-13T23:58:48.006Z,3.38
